createdAt,value
2023-05-24T00:01:54.108Z,19.24
2023-05-24T00:04:30.697Z,19.20
2023-05-24T00:07:07.332Z,19.15
2023-05-24T00:09:40.476Z,19.11
2023-05-24T00:12:33.204Z,19.09
2023-05-24T00:15:54.007Z,19.07
2023-05-24T00:18:49.809Z,19.05
2023-05-24T00:21:37.583Z,19.03
2023-05-24T00:24:53.454Z,19.01
2023-05-24T00:27:27.572Z,18.99
2023-05-24T00:34:03.912Z,18.97
2023-05-24T00:36:53.412Z,18.90
2023-05-24T00:39:52.993Z,18.85
2023-05-24T00:42:40.666Z,18.81
2023-05-24T00:45:45.749Z,18.81
2023-05-24T00:48:56.566Z,18.78
2023-05-24T00:51:57.650Z,18.75
2023-05-24T00:54:48.847Z,18.71
2023-05-24T00:57:26.253Z,18.68
2023-05-24T01:00:16.079Z,18.64
2023-05-24T01:03:47.850Z,18.64
2023-05-24T01:06:54.929Z,18.61
2023-05-24T01:10:21.953Z,18.58
2023-05-24T01:13:36.898Z,18.54
2023-05-24T01:17:14.957Z,18.49
2023-05-24T01:20:47.358Z,18.47
2023-05-24T01:24:31.341Z,18.45
2023-05-24T01:31:02.888Z,18.42
2023-05-24T01:34:23.510Z,18.39
2023-05-24T01:37:44.533Z,18.37
2023-05-24T01:41:08.906Z,18.34
2023-05-24T01:44:33.048Z,18.31
2023-05-24T01:50:19.489Z,18.28
2023-05-24T01:53:46.892Z,18.23
2023-05-24T01:57:05.907Z,18.20
2023-05-24T02:00:19.291Z,18.17
2023-05-24T02:03:17.590Z,18.13
2023-05-24T02:06:29.048Z,18.11
2023-05-24T02:09:49.259Z,18.07
2023-05-24T02:13:08.910Z,18.02
2023-05-24T02:19:34.444Z,18.01
2023-05-24T02:22:52.527Z,17.98
2023-05-24T02:26:01.088Z,17.95
2023-05-24T02:29:20.945Z,17.92
2023-05-24T02:32:36.956Z,17.89
2023-05-24T02:35:59.464Z,17.87
2023-05-24T02:39:00.390Z,17.83
2023-05-24T02:42:04.572Z,17.81
2023-05-24T02:45:24.926Z,17.76
2023-05-24T02:48:51.804Z,17.73
2023-05-24T02:52:11.204Z,17.71
2023-05-24T02:55:22.472Z,17.69
2023-05-24T02:58:32.575Z,17.68
2023-05-24T03:02:58.203Z,17.67
2023-05-24T03:06:31.898Z,17.64
2023-05-24T03:09:41.611Z,17.63
2023-05-24T03:13:12.507Z,17.62
2023-05-24T03:16:42.910Z,17.61
2023-05-24T03:19:48.895Z,17.58
2023-05-24T03:23:06.288Z,17.56
2023-05-24T03:26:27.618Z,17.55
2023-05-24T03:29:41.017Z,17.55
2023-05-24T03:34:17.877Z,17.57
2023-05-24T03:37:27.145Z,17.56
2023-05-24T03:40:46.012Z,17.57
2023-05-24T03:44:13.992Z,17.56
2023-05-24T03:47:35.745Z,17.55
2023-05-24T03:50:46.947Z,17.55
2023-05-24T03:54:01.606Z,17.54
2023-05-24T03:57:23.013Z,17.56
2023-05-24T04:00:58.015Z,17.57
2023-05-24T04:03:57.048Z,17.58
2023-05-24T04:06:58.586Z,17.59
2023-05-24T04:10:21.771Z,17.60
2023-05-24T04:13:35.835Z,17.63
2023-05-24T04:17:16.115Z,17.65
2023-05-24T04:20:52.148Z,17.64
2023-05-24T04:24:21.947Z,17.65
2023-05-24T04:27:33.812Z,17.65
2023-05-24T04:30:52.926Z,17.63
2023-05-24T04:34:17.862Z,17.60
2023-05-24T04:37:40.897Z,17.61
2023-05-24T04:40:59.995Z,17.62
2023-05-24T04:44:17.924Z,17.64
2023-05-24T04:48:10.230Z,17.69
2023-05-24T04:50:58.168Z,17.70
2023-05-24T04:53:58.312Z,17.75
2023-05-24T04:56:56.185Z,17.78
2023-05-24T05:00:01.835Z,17.81
2023-05-24T05:03:16.595Z,17.84
2023-05-24T05:06:47.251Z,17.88
2023-05-24T05:09:51.144Z,17.91
2023-05-24T05:13:20.114Z,17.95
2023-05-24T05:16:44.110Z,18.00
2023-05-24T05:19:38.560Z,18.03
2023-05-24T05:22:41.148Z,18.06
2023-05-24T05:25:39.260Z,18.14
2023-05-24T05:28:52.056Z,18.23
2023-05-24T05:32:14.244Z,18.30
2023-05-24T05:35:42.043Z,18.42
2023-05-24T05:38:52.025Z,18.54
2023-05-24T05:42:10.078Z,18.68
2023-05-24T05:45:06.935Z,18.79
2023-05-24T05:48:10.142Z,18.90
2023-05-24T05:51:43.123Z,19.01
2023-05-24T05:55:12.000Z,19.09
2023-05-24T05:58:16.529Z,19.18
2023-05-24T06:01:25.052Z,19.24
2023-05-24T06:04:46.204Z,19.30
2023-05-24T06:07:49.931Z,19.36
2023-05-24T06:10:36.246Z,19.40
2023-05-24T06:15:37.235Z,19.50
2023-05-24T06:18:57.225Z,19.55
2023-05-24T06:21:48.474Z,19.60
2023-05-24T06:24:36.403Z,19.63
2023-05-24T06:28:05.503Z,19.68
2023-05-24T06:31:17.680Z,19.77
2023-05-24T06:34:04.584Z,19.83
2023-05-24T06:36:43.283Z,19.87
2023-05-24T06:39:21.427Z,19.91
2023-05-24T06:41:52.403Z,19.96
2023-05-24T06:44:35.551Z,20.00
2023-05-24T06:47:09.909Z,20.03
2023-05-24T06:49:41.992Z,20.06
2023-05-24T06:52:19.891Z,20.08
2023-05-24T06:55:12.205Z,20.12
2023-05-24T06:58:23.761Z,20.16
2023-05-24T07:01:42.098Z,20.26
2023-05-24T07:04:51.086Z,20.38
2023-05-24T07:07:53.851Z,20.48
2023-05-24T07:10:24.641Z,20.54
2023-05-24T07:12:59.092Z,20.58
2023-05-24T07:15:34.005Z,20.64
2023-05-24T07:18:13.432Z,20.71
2023-05-24T07:20:46.654Z,20.79
2023-05-24T07:23:17.990Z,20.83
2023-05-24T07:25:48.555Z,20.87
2023-05-24T07:28:22.517Z,20.89
2023-05-24T07:31:19.235Z,20.93
2023-05-24T07:34:25.147Z,21.04
2023-05-24T07:37:25.153Z,21.23
2023-05-24T07:40:22.464Z,21.37
2023-05-24T07:42:53.345Z,21.43
2023-05-24T07:45:50.288Z,21.50
2023-05-24T07:48:46.622Z,21.53
2023-05-24T07:51:21.477Z,21.53
2023-05-24T07:54:12.191Z,21.56
2023-05-24T07:57:45.163Z,21.60
2023-05-24T08:00:40.200Z,21.57
2023-05-24T08:03:26.433Z,21.58
2023-05-24T08:06:08.103Z,21.58
2023-05-24T08:15:38.988Z,21.55
2023-05-24T08:19:09.892Z,21.50
2023-05-24T08:22:40.988Z,21.51
2023-05-24T08:26:10.822Z,21.54
2023-05-24T08:29:25.820Z,21.59
2023-05-24T08:32:58.444Z,21.64
2023-05-24T08:36:42.814Z,21.71
2023-05-24T08:40:04.889Z,21.78
2023-05-24T08:43:26.866Z,21.87
2023-05-24T08:46:53.842Z,21.94
2023-05-24T08:49:44.549Z,22.01
2023-05-24T08:52:55.877Z,22.07
2023-05-24T08:56:08.743Z,22.11
2023-05-24T08:59:12.897Z,22.11
2023-05-24T09:02:22.306Z,22.14
2023-05-24T09:05:46.627Z,22.18
2023-05-24T09:09:13.742Z,22.24
2023-05-24T09:12:49.906Z,22.27
2023-05-24T09:16:28.856Z,22.32
2023-05-24T09:19:48.927Z,22.35
2023-05-24T09:23:16.856Z,22.44
2023-05-24T09:26:49.960Z,22.52
2023-05-24T09:30:20.692Z,22.73
2023-05-24T09:33:48.823Z,23.03
2023-05-24T09:37:18.092Z,23.33
2023-05-24T09:40:39.954Z,23.51
2023-05-24T09:44:01.492Z,23.73
2023-05-24T09:47:05.001Z,23.90
2023-05-24T09:50:27.964Z,24.12
2023-05-24T09:53:27.192Z,24.33
2023-05-24T09:56:00.908Z,24.54
2023-05-24T09:58:34.434Z,24.79
2023-05-24T10:01:12.959Z,24.94
2023-05-24T10:04:04.796Z,25.13
2023-05-24T10:06:43.682Z,25.31
2023-05-24T10:09:14.633Z,25.44
2023-05-24T10:11:48.285Z,25.48
2023-05-24T10:14:36.646Z,25.46
2023-05-24T10:17:35.511Z,25.40
2023-05-24T10:24:39.760Z,25.22
2023-05-24T10:27:40.820Z,25.18
2023-05-24T10:34:39.567Z,25.29
2023-05-24T10:37:12.712Z,25.39
2023-05-24T10:39:51.656Z,25.51
2023-05-24T10:42:25.957Z,25.57
2023-05-24T10:44:59.370Z,25.64
2023-05-24T10:47:30.956Z,25.68
2023-05-24T10:50:08.178Z,25.62
2023-05-24T10:52:40.543Z,25.61
2023-05-24T10:55:14.848Z,25.65
2023-05-24T10:57:46.103Z,25.69
2023-05-24T11:03:06.506Z,25.67
2023-05-24T11:05:51.982Z,25.66
2023-05-24T11:08:45.566Z,25.76
2023-05-24T11:11:26.773Z,25.91
2023-05-24T11:13:59.475Z,26.13
2023-05-24T11:22:35.440Z,26.38
2023-05-24T11:25:11.034Z,26.29
2023-05-24T11:27:49.556Z,26.20
2023-05-24T11:30:24.539Z,26.14
2023-05-24T11:32:55.430Z,26.08
2023-05-24T11:35:33.524Z,26.06
2023-05-24T11:38:06.966Z,26.10
2023-05-24T11:40:46.871Z,26.11
2023-05-24T11:43:32.309Z,26.17
2023-05-24T11:46:03.520Z,26.35
2023-05-24T11:48:38.696Z,26.52
2023-05-24T11:51:09.874Z,26.65
2023-05-24T11:53:43.770Z,26.71
2023-05-24T11:56:14.873Z,26.73
2023-05-24T11:58:52.568Z,26.77
2023-05-24T12:01:28.718Z,26.77
2023-05-24T12:03:59.327Z,26.75
2023-05-24T12:06:38.160Z,26.72
2023-05-24T12:09:16.063Z,26.65
2023-05-24T12:11:50.529Z,26.56
2023-05-24T12:14:36.501Z,26.45
2023-05-24T12:17:07.487Z,26.36
2023-05-24T12:19:40.701Z,26.29
2023-05-24T12:22:13.815Z,26.20
2023-05-24T12:24:45.756Z,26.12
2023-05-24T12:27:17.579Z,26.05
2023-05-24T12:29:49.925Z,26.00
2023-05-24T12:32:24.380Z,25.95
2023-05-24T12:34:55.702Z,25.90
2023-05-24T12:37:36.663Z,25.84
2023-05-24T12:40:24.011Z,25.76
2023-05-24T12:43:01.010Z,25.72
2023-05-24T12:45:33.962Z,25.68
2023-05-24T12:48:05.517Z,25.65
2023-05-24T12:50:36.445Z,25.64
2023-05-24T12:53:10.944Z,25.63
2023-05-24T12:55:42.017Z,25.64
2023-05-24T12:58:17.581Z,25.67
2023-05-24T13:00:50.688Z,25.69
2023-05-24T13:03:21.925Z,25.74
2023-05-24T13:05:53.174Z,25.80
2023-05-24T13:08:30.631Z,25.84
2023-05-24T13:11:06.039Z,25.89
2023-05-24T13:13:38.701Z,25.92
2023-05-24T13:16:11.285Z,25.96
2023-05-24T13:18:42.285Z,26.00
2023-05-24T13:21:12.994Z,26.03
2023-05-24T13:23:45.823Z,26.01
2023-05-24T13:26:17.239Z,25.99
2023-05-24T13:29:08.081Z,25.95
2023-05-24T13:31:39.882Z,25.93
2023-05-24T13:34:13.514Z,25.93
2023-05-24T13:36:45.591Z,25.93
2023-05-24T13:39:16.818Z,25.89
2023-05-24T13:41:48.054Z,25.87
2023-05-24T13:44:18.697Z,25.87
2023-05-24T13:46:49.942Z,25.86
2023-05-24T13:49:22.415Z,25.86
2023-05-24T13:51:57.242Z,25.85
2023-05-24T13:54:32.602Z,25.86
2023-05-24T13:57:07.088Z,25.86
2023-05-24T13:59:38.680Z,25.86
2023-05-24T14:02:13.190Z,25.84
2023-05-24T14:04:47.034Z,25.82
2023-05-24T14:07:24.986Z,25.81
2023-05-24T14:09:57.051Z,25.80
2023-05-24T14:12:27.828Z,25.78
2023-05-24T14:15:29.649Z,25.75
2023-05-24T14:21:55.894Z,25.68
2023-05-24T14:24:59.703Z,25.67
2023-05-24T14:28:08.975Z,25.67
2023-05-24T14:30:42.866Z,25.68
2023-05-24T14:33:43.866Z,25.68
2023-05-24T14:37:06.741Z,25.70
2023-05-24T14:40:38.114Z,25.71
2023-05-24T14:43:57.459Z,25.71
2023-05-24T14:47:44.672Z,25.69
2023-05-24T14:51:09.794Z,25.68
2023-05-24T14:55:29.578Z,25.62
2023-05-24T14:58:48.081Z,25.57
2023-05-24T15:01:46.538Z,25.53
2023-05-24T15:04:24.634Z,25.50
2023-05-24T15:07:10.618Z,25.48
2023-05-24T15:10:03.700Z,25.46
2023-05-24T15:13:21.704Z,25.44
2023-05-24T15:19:39.478Z,25.40
2023-05-24T15:22:43.337Z,25.38
2023-05-24T15:25:46.826Z,25.37
2023-05-24T15:29:10.995Z,25.36
2023-05-24T15:32:38.556Z,25.34
2023-05-24T15:35:59.717Z,25.32
2023-05-24T15:39:46.589Z,25.30
2023-05-24T15:42:36.113Z,25.28
2023-05-24T15:45:44.497Z,25.24
2023-05-24T15:48:26.136Z,25.21
2023-05-24T15:53:49.272Z,25.13
2023-05-24T15:56:58.198Z,25.10
2023-05-24T15:59:50.969Z,25.09
2023-05-24T16:03:20.594Z,25.05
2023-05-24T16:06:39.705Z,25.01
2023-05-24T16:09:59.464Z,24.98
2023-05-24T16:13:19.237Z,24.96
2023-05-24T16:16:47.621Z,24.95
2023-05-24T16:20:08.969Z,24.95
2023-05-24T16:23:41.452Z,24.92
2023-05-24T16:27:04.640Z,24.89
2023-05-24T16:30:16.497Z,24.88
2023-05-24T16:33:28.821Z,24.89
2023-05-24T16:36:25.065Z,24.89
2023-05-24T16:39:07.700Z,24.89
2023-05-24T16:41:41.853Z,24.88
2023-05-24T16:44:34.341Z,24.87
2023-05-24T16:47:40.589Z,24.87
2023-05-24T16:50:54.993Z,24.86
2023-05-24T16:54:04.062Z,24.86
2023-05-24T16:57:33.579Z,24.85
2023-05-24T17:01:08.428Z,24.82
2023-05-24T17:04:40.387Z,24.79
2023-05-24T17:08:11.464Z,24.72
2023-05-24T17:11:41.585Z,24.60
2023-05-24T17:15:11.674Z,24.45
2023-05-24T17:18:44.655Z,24.33
2023-05-24T17:22:08.148Z,24.22
2023-05-24T17:25:26.258Z,24.08
2023-05-24T17:28:46.508Z,23.98
2023-05-24T17:32:10.582Z,23.90
2023-05-24T17:34:53.582Z,23.82
2023-05-24T17:37:57.531Z,23.75
2023-05-24T17:44:40.688Z,23.51
2023-05-24T17:47:58.414Z,23.39
2023-05-24T17:51:13.500Z,23.31
2023-05-24T17:54:24.554Z,23.24
2023-05-24T17:57:40.802Z,23.20
2023-05-24T18:01:14.038Z,23.18
2023-05-24T18:04:04.728Z,23.16
2023-05-24T18:39:26.871Z,22.76
2023-05-24T18:42:04.635Z,22.70
2023-05-24T18:44:38.262Z,22.67
2023-05-24T18:47:15.629Z,22.65
2023-05-24T18:49:54.873Z,22.64
2023-05-24T18:52:25.774Z,22.63
2023-05-24T18:55:02.125Z,22.60
2023-05-24T18:57:35.638Z,22.56
2023-05-24T19:00:12.985Z,22.53
2023-05-24T19:02:49.317Z,22.50
2023-05-24T19:05:23.253Z,22.44
2023-05-24T19:07:56.000Z,22.37
2023-05-24T19:10:27.111Z,22.34
2023-05-24T19:12:58.971Z,22.32
2023-05-24T19:15:46.270Z,22.30
2023-05-24T19:18:22.219Z,22.28
2023-05-24T19:20:59.201Z,22.26
2023-05-24T19:23:31.118Z,22.23
2023-05-24T19:26:01.552Z,22.22
2023-05-24T19:28:34.250Z,22.20
2023-05-24T19:31:09.367Z,22.18
2023-05-24T19:33:48.762Z,22.12
2023-05-24T19:36:28.786Z,22.00
2023-05-24T19:39:04.465Z,21.90
2023-05-24T19:41:41.419Z,21.76
2023-05-24T19:44:20.978Z,21.65
2023-05-24T19:46:58.013Z,21.58
2023-05-24T19:49:32.502Z,21.52
2023-05-24T19:52:03.400Z,21.45
2023-05-24T19:54:38.374Z,21.40
2023-05-24T19:57:11.270Z,21.36
2023-05-24T19:59:45.033Z,21.30
2023-05-24T20:02:19.276Z,21.22
2023-05-24T20:04:53.372Z,21.15
2023-05-24T20:07:28.113Z,21.10
2023-05-24T20:10:07.985Z,21.05
2023-05-24T20:12:39.607Z,21.03
2023-05-24T20:15:17.075Z,21.00
2023-05-24T20:17:47.654Z,20.99
2023-05-24T20:20:18.476Z,20.96
2023-05-24T20:22:55.271Z,20.92
2023-05-24T20:25:30.222Z,20.90
2023-05-24T20:28:02.837Z,20.83
2023-05-24T20:30:43.155Z,20.76
2023-05-24T20:41:38.514Z,20.45
